Cedar Vale, Kansas
Current Conditions -  °F | °C
As of 9:54 AM on Thursday 23 Oct 2014 (Local Time) from KWLD Reporting Station
Overcast Overcast  
Wind Chill: 62°   Ceiling: 4600
Heat Index: 62°   Visibility: 10mi
Dew Point: 60°   Wind: 13mph
Humidity: 93%   Direction: 180°S
Pressure: 30.13"   Gusts: NA
Location:  37.1°N, 96.5°W
Report Text: KWLD 231454Z AUTO 18011KT 10SM OVC046 17/16 A3013 RMK AO2 SLP195 T01670156 51009
Loading
Personal Weather Stations






























Interactive Weather Map
Tropical Storm Tracking
New forecast layout! Learn more

10-Day Weather Forecast

Advertisements
Track Severe Weather on mobile